sensor_id;sensor_type;location;lat;lon;timestamp;P1;durP1;ratioP1;P2;durP2;ratioP2
66619;SDS011;53484;51.356;6.732;2022-08-07T00:01:29;7.97;;;2.88;;
66619;SDS011;53484;51.356;6.732;2022-08-07T00:03:55;5.55;;;2.80;;
66619;SDS011;53484;51.356;6.732;2022-08-07T00:06:21;7.22;;;2.70;;
66619;SDS011;53484;51.356;6.732;2022-08-07T00:08:48;5.63;;;2.80;;
66619;SDS011;53484;51.356;6.732;2022-08-07T00:11:14;5.03;;;2.25;;
66619;SDS011;53484;51.356;6.732;2022-08-07T00:13:41;7.68;;;2.60;;
66619;SDS011;53484;51.356;6.732;2022-08-07T00:16:10;7.82;;;2.67;;
66619;SDS011;53484;51.356;6.732;2022-08-07T00:18:36;9.55;;;2.80;;
66619;SDS011;53484;51.356;6.732;2022-08-07T00:21:04;7.90;;;2.87;;
66619;SDS011;53484;51.356;6.732;2022-08-07T00:23:31;8.68;;;2.40;;
66619;SDS011;53484;51.356;6.732;2022-08-07T00:25:58;5.35;;;2.67;;
66619;SDS011;53484;51.356;6.732;2022-08-07T00:28:24;5.55;;;2.80;;
66619;SDS011;53484;51.356;6.732;2022-08-07T00:30:52;6.82;;;2.90;;
66619;SDS011;53484;51.356;6.732;2022-08-07T00:33:18;6.33;;;2.80;;
66619;SDS011;53484;51.356;6.732;2022-08-07T00:35:50;7.45;;;2.90;;
66619;SDS011;53484;51.356;6.732;2022-08-07T00:38:16;5.93;;;2.67;;
66619;SDS011;53484;51.356;6.732;2022-08-07T00:40:42;5.65;;;3.03;;
66619;SDS011;53484;51.356;6.732;2022-08-07T00:43:09;9.02;;;2.83;;
66619;SDS011;53484;51.356;6.732;2022-08-07T00:45:36;6.27;;;3.00;;
66619;SDS011;53484;51.356;6.732;2022-08-07T00:48:04;7.00;;;2.88;;
66619;SDS011;53484;51.356;6.732;2022-08-07T00:50:30;6.88;;;3.10;;
66619;SDS011;53484;51.356;6.732;2022-08-07T00:52:57;8.02;;;2.88;;
66619;SDS011;53484;51.356;6.732;2022-08-07T00:55:23;6.63;;;3.17;;
66619;SDS011;53484;51.356;6.732;2022-08-07T00:57:49;5.97;;;2.90;;
66619;SDS011;53484;51.356;6.732;2022-08-07T01:00:16;7.63;;;2.90;;
66619;SDS011;53484;51.356;6.732;2022-08-07T01:02:42;6.35;;;2.80;;
66619;SDS011;53484;51.356;6.732;2022-08-07T01:05:11;5.75;;;3.00;;
66619;SDS011;53484;51.356;6.732;2022-08-07T01:07:37;10.95;;;3.25;;
66619;SDS011;53484;51.356;6.732;2022-08-07T01:10:05;7.47;;;3.20;;
66619;SDS011;53484;51.356;6.732;2022-08-07T01:12:32;8.05;;;3.20;;
66619;SDS011;53484;51.356;6.732;2022-08-07T01:14:58;7.88;;;3.20;;
66619;SDS011;53484;51.356;6.732;2022-08-07T01:17:26;6.68;;;2.90;;
66619;SDS011;53484;51.356;6.732;2022-08-07T01:19:53;7.38;;;3.28;;
66619;SDS011;53484;51.356;6.732;2022-08-07T01:22:22;6.87;;;3.23;;
66619;SDS011;53484;51.356;6.732;2022-08-07T01:24:49;8.02;;;3.20;;
66619;SDS011;53484;51.356;6.732;2022-08-07T01:27:15;8.32;;;3.47;;
66619;SDS011;53484;51.356;6.732;2022-08-07T01:29:42;6.57;;;3.50;;
66619;SDS011;53484;51.356;6.732;2022-08-07T01:32:08;7.15;;;3.80;;
66619;SDS011;53484;51.356;6.732;2022-08-07T01:34:34;7.50;;;3.37;;
66619;SDS011;53484;51.356;6.732;2022-08-07T01:37:01;7.85;;;3.75;;
66619;SDS011;53484;51.356;6.732;2022-08-07T01:39:28;7.95;;;3.70;;
66619;SDS011;53484;51.356;6.732;2022-08-07T01:41:55;6.72;;;3.28;;
66619;SDS011;53484;51.356;6.732;2022-08-07T01:44:21;7.30;;;3.20;;
66619;SDS011;53484;51.356;6.732;2022-08-07T01:46:48;8.93;;;3.50;;
66619;SDS011;53484;51.356;6.732;2022-08-07T01:49:14;7.63;;;3.30;;
66619;SDS011;53484;51.356;6.732;2022-08-07T01:51:41;8.40;;;3.60;;
66619;SDS011;53484;51.356;6.732;2022-08-07T01:54:08;7.20;;;3.15;;
66619;SDS011;53484;51.356;6.732;2022-08-07T01:56:38;7.93;;;3.25;;
66619;SDS011;53484;51.356;6.732;2022-08-07T01:59:07;6.50;;;2.80;;
66619;SDS011;53484;51.356;6.732;2022-08-07T02:01:35;5.70;;;3.05;;
66619;SDS011;53484;51.356;6.732;2022-08-07T02:04:05;6.57;;;3.30;;
66619;SDS011;53484;51.356;6.732;2022-08-07T02:06:32;6.88;;;3.10;;
66619;SDS011;53484;51.356;6.732;2022-08-07T02:09:04;6.65;;;3.38;;
66619;SDS011;53484;51.356;6.732;2022-08-07T02:11:31;9.13;;;3.37;;
66619;SDS011;53484;51.356;6.732;2022-08-07T02:13:59;8.50;;;3.53;;
66619;SDS011;53484;51.356;6.732;2022-08-07T02:16:26;6.88;;;3.40;;
66619;SDS011;53484;51.356;6.732;2022-08-07T02:18:53;7.45;;;3.30;;
66619;SDS011;53484;51.356;6.732;2022-08-07T02:21:20;7.03;;;3.10;;
66619;SDS011;53484;51.356;6.732;2022-08-07T02:23:47;7.60;;;3.43;;
66619;SDS011;53484;51.356;6.732;2022-08-07T02:26:14;7.68;;;3.40;;
66619;SDS011;53484;51.356;6.732;2022-08-07T02:28:42;7.78;;;3.88;;
66619;SDS011;53484;51.356;6.732;2022-08-07T02:31:10;7.18;;;3.97;;
66619;SDS011;53484;51.356;6.732;2022-08-07T02:33:37;8.00;;;3.03;;
66619;SDS011;53484;51.356;6.732;2022-08-07T02:36:04;6.03;;;3.30;;
66619;SDS011;53484;51.356;6.732;2022-08-07T02:38:32;7.55;;;3.45;;
66619;SDS011;53484;51.356;6.732;2022-08-07T02:41:00;6.63;;;3.78;;
66619;SDS011;53484;51.356;6.732;2022-08-07T02:43:27;7.65;;;3.28;;
66619;SDS011;53484;51.356;6.732;2022-08-07T02:45:55;7.40;;;3.50;;
66619;SDS011;53484;51.356;6.732;2022-08-07T02:48:23;6.67;;;3.83;;
66619;SDS011;53484;51.356;6.732;2022-08-07T02:50:52;8.13;;;3.50;;
66619;SDS011;53484;51.356;6.732;2022-08-07T02:53:20;8.20;;;3.53;;
66619;SDS011;53484;51.356;6.732;2022-08-07T02:55:47;6.20;;;3.58;;
66619;SDS011;53484;51.356;6.732;2022-08-07T02:58:15;8.63;;;4.20;;
66619;SDS011;53484;51.356;6.732;2022-08-07T03:00:44;9.17;;;3.23;;
66619;SDS011;53484;51.356;6.732;2022-08-07T03:03:10;6.22;;;3.33;;
66619;SDS011;53484;51.356;6.732;2022-08-07T03:05:39;7.13;;;3.30;;
66619;SDS011;53484;51.356;6.732;2022-08-07T03:08:05;6.75;;;3.47;;
66619;SDS011;53484;51.356;6.732;2022-08-07T03:10:32;10.13;;;3.85;;
66619;SDS011;53484;51.356;6.732;2022-08-07T03:12:58;9.40;;;3.40;;
66619;SDS011;53484;51.356;6.732;2022-08-07T03:15:25;7.90;;;3.47;;
66619;SDS011;53484;51.356;6.732;2022-08-07T03:17:52;7.57;;;3.45;;
66619;SDS011;53484;51.356;6.732;2022-08-07T03:20:18;8.07;;;3.50;;
66619;SDS011;53484;51.356;6.732;2022-08-07T03:22:46;6.97;;;3.35;;
66619;SDS011;53484;51.356;6.732;2022-08-07T03:25:13;7.33;;;3.37;;
66619;SDS011;53484;51.356;6.732;2022-08-07T03:27:40;6.63;;;3.53;;
66619;SDS011;53484;51.356;6.732;2022-08-07T03:30:07;7.28;;;3.28;;
66619;SDS011;53484;51.356;6.732;2022-08-07T03:32:35;8.52;;;3.50;;
66619;SDS011;53484;51.356;6.732;2022-08-07T03:35:02;6.30;;;3.30;;
66619;SDS011;53484;51.356;6.732;2022-08-07T03:37:30;7.10;;;3.47;;
66619;SDS011;53484;51.356;6.732;2022-08-07T03:39:58;7.75;;;3.30;;
66619;SDS011;53484;51.356;6.732;2022-08-07T03:42:24;8.30;;;3.22;;
66619;SDS011;53484;51.356;6.732;2022-08-07T03:44:51;6.03;;;3.30;;
66619;SDS011;53484;51.356;6.732;2022-08-07T03:47:17;6.65;;;3.40;;
66619;SDS011;53484;51.356;6.732;2022-08-07T03:49:43;6.87;;;3.57;;
66619;SDS011;53484;51.356;6.732;2022-08-07T03:52:10;6.63;;;3.20;;
66619;SDS011;53484;51.356;6.732;2022-08-07T03:54:36;5.78;;;2.95;;
66619;SDS011;53484;51.356;6.732;2022-08-07T03:57:04;7.68;;;3.30;;
66619;SDS011;53484;51.356;6.732;2022-08-07T03:59:31;9.43;;;3.50;;
66619;SDS011;53484;51.356;6.732;2022-08-07T04:01:58;5.87;;;3.23;;
66619;SDS011;53484;51.356;6.732;2022-08-07T04:04:24;7.82;;;3.20;;
66619;SDS011;53484;51.356;6.732;2022-08-07T04:06:51;6.38;;;3.53;;
66619;SDS011;53484;51.356;6.732;2022-08-07T04:09:17;6.80;;;3.33;;
66619;SDS011;53484;51.356;6.732;2022-08-07T04:11:45;10.02;;;3.90;;
66619;SDS011;53484;51.356;6.732;2022-08-07T04:14:13;6.47;;;3.27;;
66619;SDS011;53484;51.356;6.732;2022-08-07T04:16:39;7.32;;;3.42;;
66619;SDS011;53484;51.356;6.732;2022-08-07T04:19:06;6.53;;;2.95;;
66619;SDS011;53484;51.356;6.732;2022-08-07T04:21:32;5.38;;;3.10;;
66619;SDS011;53484;51.356;6.732;2022-08-07T04:23:59;7.95;;;3.42;;
66619;SDS011;53484;51.356;6.732;2022-08-07T04:26:26;7.47;;;3.00;;
66619;SDS011;53484;51.356;6.732;2022-08-07T04:28:52;6.60;;;3.30;;
66619;SDS011;53484;51.356;6.732;2022-08-07T04:31:23;6.32;;;3.28;;
66619;SDS011;53484;51.356;6.732;2022-08-07T04:33:49;7.80;;;3.15;;
66619;SDS011;53484;51.356;6.732;2022-08-07T04:36:16;6.35;;;3.47;;
66619;SDS011;53484;51.356;6.732;2022-08-07T04:38:43;7.80;;;3.50;;
66619;SDS011;53484;51.356;6.732;2022-08-07T04:41:09;8.65;;;3.20;;
66619;SDS011;53484;51.356;6.732;2022-08-07T04:43:36;5.88;;;3.13;;
66619;SDS011;53484;51.356;6.732;2022-08-07T04:46:05;5.47;;;3.15;;
66619;SDS011;53484;51.356;6.732;2022-08-07T04:48:37;6.47;;;3.10;;
66619;SDS011;53484;51.356;6.732;2022-08-07T04:51:06;7.60;;;3.60;;
66619;SDS011;53484;51.356;6.732;2022-08-07T04:53:36;5.68;;;2.65;;
66619;SDS011;53484;51.356;6.732;2022-08-07T04:56:07;7.03;;;3.38;;
66619;SDS011;53484;51.356;6.732;2022-08-07T04:58:38;8.63;;;3.25;;
66619;SDS011;53484;51.356;6.732;2022-08-07T05:01:06;7.93;;;3.00;;
66619;SDS011;53484;51.356;6.732;2022-08-07T05:03:40;5.33;;;2.77;;
66619;SDS011;53484;51.356;6.732;2022-08-07T05:06:11;6.80;;;3.00;;
66619;SDS011;53484;51.356;6.732;2022-08-07T05:08:39;6.68;;;3.53;;
66619;SDS011;53484;51.356;6.732;2022-08-07T05:11:08;6.57;;;2.95;;
66619;SDS011;53484;51.356;6.732;2022-08-07T05:13:38;6.57;;;3.25;;
66619;SDS011;53484;51.356;6.732;2022-08-07T05:16:10;6.13;;;2.80;;
66619;SDS011;53484;51.356;6.732;2022-08-07T05:18:42;7.38;;;3.10;;
66619;SDS011;53484;51.356;6.732;2022-08-07T05:21:11;5.80;;;2.95;;
66619;SDS011;53484;51.356;6.732;2022-08-07T05:23:46;7.25;;;3.00;;
66619;SDS011;53484;51.356;6.732;2022-08-07T05:26:14;7.22;;;3.28;;
66619;SDS011;53484;51.356;6.732;2022-08-07T05:28:41;6.57;;;2.80;;
66619;SDS011;53484;51.356;6.732;2022-08-07T05:31:09;7.15;;;2.95;;
66619;SDS011;53484;51.356;6.732;2022-08-07T05:33:36;7.90;;;3.00;;
66619;SDS011;53484;51.356;6.732;2022-08-07T05:36:05;6.82;;;2.70;;
66619;SDS011;53484;51.356;6.732;2022-08-07T05:38:31;5.70;;;2.97;;
66619;SDS011;53484;51.356;6.732;2022-08-07T05:41:00;6.03;;;2.77;;
66619;SDS011;53484;51.356;6.732;2022-08-07T05:43:26;5.72;;;2.80;;
66619;SDS011;53484;51.356;6.732;2022-08-07T05:45:52;6.47;;;2.60;;
66619;SDS011;53484;51.356;6.732;2022-08-07T05:48:18;4.75;;;2.05;;
66619;SDS011;53484;51.356;6.732;2022-08-07T05:50:45;4.97;;;2.30;;
66619;SDS011;53484;51.356;6.732;2022-08-07T05:53:13;5.90;;;2.10;;
66619;SDS011;53484;51.356;6.732;2022-08-07T05:55:40;5.05;;;2.03;;
66619;SDS011;53484;51.356;6.732;2022-08-07T05:58:07;4.47;;;2.08;;
66619;SDS011;53484;51.356;6.732;2022-08-07T06:00:35;10.75;;;2.17;;
66619;SDS011;53484;51.356;6.732;2022-08-07T06:03:02;6.35;;;1.77;;
66619;SDS011;53484;51.356;6.732;2022-08-07T06:05:30;8.80;;;2.70;;
66619;SDS011;53484;51.356;6.732;2022-08-07T06:07:57;5.57;;;2.00;;
66619;SDS011;53484;51.356;6.732;2022-08-07T06:10:25;5.55;;;2.33;;
66619;SDS011;53484;51.356;6.732;2022-08-07T06:12:52;5.70;;;2.05;;
66619;SDS011;53484;51.356;6.732;2022-08-07T06:15:18;4.82;;;1.77;;
66619;SDS011;53484;51.356;6.732;2022-08-07T06:17:45;4.20;;;1.60;;
66619;SDS011;53484;51.356;6.732;2022-08-07T06:20:12;6.15;;;1.98;;
66619;SDS011;53484;51.356;6.732;2022-08-07T06:22:39;4.28;;;1.83;;
66619;SDS011;53484;51.356;6.732;2022-08-07T06:25:05;3.45;;;1.48;;
66619;SDS011;53484;51.356;6.732;2022-08-07T06:27:33;3.88;;;1.80;;
66619;SDS011;53484;51.356;6.732;2022-08-07T06:30:00;3.93;;;1.60;;
66619;SDS011;53484;51.356;6.732;2022-08-07T06:32:26;5.57;;;1.77;;
66619;SDS011;53484;51.356;6.732;2022-08-07T06:34:52;3.92;;;1.70;;
66619;SDS011;53484;51.356;6.732;2022-08-07T06:37:19;4.45;;;1.52;;
66619;SDS011;53484;51.356;6.732;2022-08-07T06:39:45;6.45;;;1.80;;
66619;SDS011;53484;51.356;6.732;2022-08-07T06:42:14;4.20;;;1.57;;
66619;SDS011;53484;51.356;6.732;2022-08-07T06:44:42;4.70;;;1.45;;
66619;SDS011;53484;51.356;6.732;2022-08-07T06:47:09;5.65;;;1.55;;
66619;SDS011;53484;51.356;6.732;2022-08-07T06:49:35;3.85;;;1.40;;
66619;SDS011;53484;51.356;6.732;2022-08-07T06:52:02;4.22;;;1.50;;
66619;SDS011;53484;51.356;6.732;2022-08-07T06:54:28;4.13;;;1.40;;
66619;SDS011;53484;51.356;6.732;2022-08-07T06:56:56;4.28;;;1.42;;
66619;SDS011;53484;51.356;6.732;2022-08-07T06:59:25;3.38;;;1.30;;
66619;SDS011;53484;51.356;6.732;2022-08-07T07:01:53;4.60;;;1.40;;
66619;SDS011;53484;51.356;6.732;2022-08-07T07:04:20;3.83;;;1.25;;
66619;SDS011;53484;51.356;6.732;2022-08-07T07:06:46;3.67;;;1.20;;
66619;SDS011;53484;51.356;6.732;2022-08-07T07:09:20;5.00;;;1.30;;
66619;SDS011;53484;51.356;6.732;2022-08-07T07:12:09;4.43;;;1.10;;
66619;SDS011;53484;51.356;6.732;2022-08-07T07:14:40;3.08;;;1.20;;
66619;SDS011;53484;51.356;6.732;2022-08-07T07:17:12;3.83;;;1.02;;
66619;SDS011;53484;51.356;6.732;2022-08-07T07:19:41;11.70;;;1.20;;
66619;SDS011;53484;51.356;6.732;2022-08-07T07:22:10;3.80;;;1.00;;
66619;SDS011;53484;51.356;6.732;2022-08-07T07:24:37;3.10;;;1.13;;
66619;SDS011;53484;51.356;6.732;2022-08-07T07:27:03;4.55;;;1.20;;
66619;SDS011;53484;51.356;6.732;2022-08-07T07:29:32;4.63;;;1.20;;
66619;SDS011;53484;51.356;6.732;2022-08-07T07:32:00;2.70;;;0.90;;
66619;SDS011;53484;51.356;6.732;2022-08-07T07:34:29;4.07;;;1.20;;
66619;SDS011;53484;51.356;6.732;2022-08-07T07:36:56;4.07;;;1.15;;
66619;SDS011;53484;51.356;6.732;2022-08-07T07:39:23;3.05;;;0.70;;
66619;SDS011;53484;51.356;6.732;2022-08-07T07:41:51;3.10;;;0.82;;
66619;SDS011;53484;51.356;6.732;2022-08-07T07:44:19;2.37;;;0.80;;
66619;SDS011;53484;51.356;6.732;2022-08-07T07:46:46;2.38;;;0.70;;
66619;SDS011;53484;51.356;6.732;2022-08-07T07:49:14;2.50;;;0.90;;
66619;SDS011;53484;51.356;6.732;2022-08-07T07:51:43;4.55;;;0.80;;
66619;SDS011;53484;51.356;6.732;2022-08-07T07:54:09;3.35;;;0.88;;
66619;SDS011;53484;51.356;6.732;2022-08-07T07:56:36;3.90;;;1.00;;
66619;SDS011;53484;51.356;6.732;2022-08-07T07:59:04;2.38;;;0.73;;
66619;SDS011;53484;51.356;6.732;2022-08-07T08:01:30;4.68;;;1.08;;
66619;SDS011;53484;51.356;6.732;2022-08-07T08:03:59;4.07;;;0.90;;
66619;SDS011;53484;51.356;6.732;2022-08-07T08:06:25;2.28;;;0.73;;
66619;SDS011;53484;51.356;6.732;2022-08-07T08:08:53;3.07;;;0.70;;
66619;SDS011;53484;51.356;6.732;2022-08-07T08:11:21;2.20;;;0.60;;
66619;SDS011;53484;51.356;6.732;2022-08-07T08:13:47;3.60;;;0.55;;
66619;SDS011;53484;51.356;6.732;2022-08-07T08:16:14;2.58;;;0.65;;
66619;SDS011;53484;51.356;6.732;2022-08-07T08:18:42;2.63;;;0.70;;
66619;SDS011;53484;51.356;6.732;2022-08-07T08:21:08;2.40;;;0.70;;
66619;SDS011;53484;51.356;6.732;2022-08-07T08:23:57;2.47;;;0.90;;
66619;SDS011;53484;51.356;6.732;2022-08-07T08:26:41;3.25;;;0.85;;
66619;SDS011;53484;51.356;6.732;2022-08-07T08:29:25;2.65;;;0.70;;
66619;SDS011;53484;51.356;6.732;2022-08-07T08:31:52;2.75;;;0.80;;
66619;SDS011;53484;51.356;6.732;2022-08-07T08:34:19;4.10;;;0.70;;
66619;SDS011;53484;51.356;6.732;2022-08-07T08:36:46;1.58;;;0.43;;
66619;SDS011;53484;51.356;6.732;2022-08-07T08:39:14;1.67;;;0.47;;
66619;SDS011;53484;51.356;6.732;2022-08-07T08:41:42;2.17;;;0.40;;
66619;SDS011;53484;51.356;6.732;2022-08-07T08:44:13;2.17;;;0.57;;
66619;SDS011;53484;51.356;6.732;2022-08-07T08:46:42;3.03;;;0.40;;
66619;SDS011;53484;51.356;6.732;2022-08-07T08:49:15;3.70;;;0.40;;
66619;SDS011;53484;51.356;6.732;2022-08-07T08:51:46;2.88;;;0.50;;
66619;SDS011;53484;51.356;6.732;2022-08-07T08:54:18;1.52;;;0.50;;
66619;SDS011;53484;51.356;6.732;2022-08-07T08:56:46;1.73;;;0.52;;
66619;SDS011;53484;51.356;6.732;2022-08-07T08:59:14;4.73;;;0.60;;
66619;SDS011;53484;51.356;6.732;2022-08-07T09:01:43;3.00;;;0.52;;
66619;SDS011;53484;51.356;6.732;2022-08-07T09:04:13;2.17;;;0.47;;
66619;SDS011;53484;51.356;6.732;2022-08-07T09:06:43;1.70;;;0.40;;
66619;SDS011;53484;51.356;6.732;2022-08-07T09:09:20;2.55;;;0.50;;
66619;SDS011;53484;51.356;6.732;2022-08-07T09:11:51;2.67;;;0.40;;
66619;SDS011;53484;51.356;6.732;2022-08-07T09:14:22;2.08;;;0.60;;
66619;SDS011;53484;51.356;6.732;2022-08-07T09:16:53;2.30;;;0.52;;
66619;SDS011;53484;51.356;6.732;2022-08-07T09:19:24;1.95;;;0.50;;
66619;SDS011;53484;51.356;6.732;2022-08-07T09:21:55;2.00;;;0.50;;
66619;SDS011;53484;51.356;6.732;2022-08-07T09:24:38;2.90;;;0.50;;
66619;SDS011;53484;51.356;6.732;2022-08-07T09:27:08;1.75;;;0.50;;
66619;SDS011;53484;51.356;6.732;2022-08-07T09:29:42;2.17;;;0.50;;
66619;SDS011;53484;51.356;6.732;2022-08-07T09:32:12;3.78;;;0.60;;
66619;SDS011;53484;51.356;6.732;2022-08-07T09:34:46;2.60;;;0.70;;
66619;SDS011;53484;51.356;6.732;2022-08-07T09:37:18;2.33;;;0.50;;
66619;SDS011;53484;51.356;6.732;2022-08-07T09:39:47;1.60;;;0.40;;
66619;SDS011;53484;51.356;6.732;2022-08-07T09:42:16;3.35;;;0.63;;
66619;SDS011;53484;51.356;6.732;2022-08-07T09:44:48;1.92;;;0.60;;
66619;SDS011;53484;51.356;6.732;2022-08-07T09:47:18;2.53;;;0.60;;
66619;SDS011;53484;51.356;6.732;2022-08-07T09:49:52;2.10;;;0.60;;
66619;SDS011;53484;51.356;6.732;2022-08-07T09:52:22;2.33;;;0.65;;
66619;SDS011;53484;51.356;6.732;2022-08-07T09:54:53;2.78;;;0.65;;
66619;SDS011;53484;51.356;6.732;2022-08-07T09:57:24;2.60;;;0.50;;
66619;SDS011;53484;51.356;6.732;2022-08-07T10:00:00;4.78;;;0.85;;
66619;SDS011;53484;51.356;6.732;2022-08-07T10:05:21;2.17;;;0.60;;
66619;SDS011;53484;51.356;6.732;2022-08-07T10:07:57;4.03;;;0.90;;
66619;SDS011;53484;51.356;6.732;2022-08-07T10:10:32;3.97;;;0.85;;
66619;SDS011;53484;51.356;6.732;2022-08-07T10:13:10;2.30;;;0.60;;
66619;SDS011;53484;51.356;6.732;2022-08-07T10:15:48;2.93;;;0.90;;
66619;SDS011;53484;51.356;6.732;2022-08-07T10:18:21;3.17;;;0.50;;
66619;SDS011;53484;51.356;6.732;2022-08-07T10:20:54;1.92;;;0.50;;
66619;SDS011;53484;51.356;6.732;2022-08-07T10:23:31;1.80;;;0.50;;
66619;SDS011;53484;51.356;6.732;2022-08-07T10:26:03;5.57;;;0.75;;
66619;SDS011;53484;51.356;6.732;2022-08-07T10:28:36;3.53;;;0.70;;
66619;SDS011;53484;51.356;6.732;2022-08-07T10:31:09;2.42;;;0.90;;
66619;SDS011;53484;51.356;6.732;2022-08-07T10:33:42;2.22;;;0.60;;
66619;SDS011;53484;51.356;6.732;2022-08-07T10:36:18;3.08;;;0.80;;
66619;SDS011;53484;51.356;6.732;2022-08-07T10:38:49;2.15;;;0.73;;
66619;SDS011;53484;51.356;6.732;2022-08-07T10:41:20;2.40;;;0.70;;
66619;SDS011;53484;51.356;6.732;2022-08-07T10:43:53;2.35;;;0.45;;
66619;SDS011;53484;51.356;6.732;2022-08-07T10:46:23;2.03;;;0.60;;
66619;SDS011;53484;51.356;6.732;2022-08-07T10:48:54;1.77;;;0.60;;
66619;SDS011;53484;51.356;6.732;2022-08-07T10:51:25;3.60;;;0.80;;
66619;SDS011;53484;51.356;6.732;2022-08-07T10:53:55;2.03;;;0.50;;
66619;SDS011;53484;51.356;6.732;2022-08-07T10:56:27;2.10;;;0.60;;
66619;SDS011;53484;51.356;6.732;2022-08-07T10:59:05;3.50;;;1.20;;
66619;SDS011;53484;51.356;6.732;2022-08-07T11:01:35;2.72;;;0.70;;
66619;SDS011;53484;51.356;6.732;2022-08-07T11:04:04;2.17;;;0.63;;
66619;SDS011;53484;51.356;6.732;2022-08-07T11:06:34;2.83;;;0.80;;
66619;SDS011;53484;51.356;6.732;2022-08-07T11:09:06;2.75;;;1.10;;
66619;SDS011;53484;51.356;6.732;2022-08-07T11:11:38;6.82;;;1.20;;
66619;SDS011;53484;51.356;6.732;2022-08-07T11:14:09;1.92;;;0.73;;
66619;SDS011;53484;51.356;6.732;2022-08-07T11:16:39;2.53;;;0.75;;
66619;SDS011;53484;51.356;6.732;2022-08-07T11:19:09;2.37;;;0.80;;
66619;SDS011;53484;51.356;6.732;2022-08-07T11:21:37;2.38;;;0.80;;
66619;SDS011;53484;51.356;6.732;2022-08-07T11:24:05;2.88;;;0.60;;
66619;SDS011;53484;51.356;6.732;2022-08-07T11:26:34;2.17;;;0.68;;
66619;SDS011;53484;51.356;6.732;2022-08-07T11:29:06;3.22;;;0.80;;
66619;SDS011;53484;51.356;6.732;2022-08-07T11:31:36;1.80;;;0.63;;
66619;SDS011;53484;51.356;6.732;2022-08-07T11:34:04;3.67;;;0.70;;
66619;SDS011;53484;51.356;6.732;2022-08-07T11:36:37;2.55;;;1.00;;
66619;SDS011;53484;51.356;6.732;2022-08-07T11:39:06;2.40;;;0.80;;
66619;SDS011;53484;51.356;6.732;2022-08-07T11:41:36;3.35;;;0.70;;
66619;SDS011;53484;51.356;6.732;2022-08-07T11:44:08;3.33;;;0.70;;
66619;SDS011;53484;51.356;6.732;2022-08-07T11:46:47;2.13;;;0.60;;
66619;SDS011;53484;51.356;6.732;2022-08-07T11:49:33;2.05;;;0.60;;
66619;SDS011;53484;51.356;6.732;2022-08-07T11:52:12;2.95;;;0.57;;
66619;SDS011;53484;51.356;6.732;2022-08-07T11:54:54;3.00;;;0.60;;
66619;SDS011;53484;51.356;6.732;2022-08-07T11:57:28;3.07;;;0.60;;
66619;SDS011;53484;51.356;6.732;2022-08-07T12:00:03;3.10;;;0.70;;
66619;SDS011;53484;51.356;6.732;2022-08-07T12:02:34;3.47;;;0.70;;
66619;SDS011;53484;51.356;6.732;2022-08-07T12:05:06;3.15;;;0.88;;
66619;SDS011;53484;51.356;6.732;2022-08-07T12:07:33;2.53;;;0.80;;
66619;SDS011;53484;51.356;6.732;2022-08-07T12:10:02;2.60;;;0.70;;
66619;SDS011;53484;51.356;6.732;2022-08-07T12:12:34;2.97;;;0.60;;
66619;SDS011;53484;51.356;6.732;2022-08-07T12:15:03;2.45;;;0.77;;
66619;SDS011;53484;51.356;6.732;2022-08-07T12:17:37;2.75;;;0.60;;
66619;SDS011;53484;51.356;6.732;2022-08-07T12:20:05;4.93;;;0.90;;
66619;SDS011;53484;51.356;6.732;2022-08-07T12:22:34;2.97;;;0.90;;
66619;SDS011;53484;51.356;6.732;2022-08-07T12:25:05;3.13;;;0.60;;
66619;SDS011;53484;51.356;6.732;2022-08-07T12:27:53;2.30;;;0.80;;
66619;SDS011;53484;51.356;6.732;2022-08-07T12:30:23;3.03;;;0.90;;
66619;SDS011;53484;51.356;6.732;2022-08-07T12:32:51;3.38;;;0.95;;
66619;SDS011;53484;51.356;6.732;2022-08-07T12:35:19;3.60;;;1.00;;
66619;SDS011;53484;51.356;6.732;2022-08-07T12:37:47;2.33;;;0.93;;
66619;SDS011;53484;51.356;6.732;2022-08-07T12:40:15;4.65;;;1.10;;
66619;SDS011;53484;51.356;6.732;2022-08-07T12:42:44;3.08;;;0.95;;
66619;SDS011;53484;51.356;6.732;2022-08-07T12:45:11;2.17;;;0.80;;
66619;SDS011;53484;51.356;6.732;2022-08-07T12:47:44;3.30;;;0.80;;
66619;SDS011;53484;51.356;6.732;2022-08-07T12:50:15;6.25;;;0.93;;
66619;SDS011;53484;51.356;6.732;2022-08-07T12:52:45;3.05;;;0.82;;
66619;SDS011;53484;51.356;6.732;2022-08-07T12:55:14;3.90;;;1.13;;
66619;SDS011;53484;51.356;6.732;2022-08-07T12:57:42;3.22;;;0.93;;
66619;SDS011;53484;51.356;6.732;2022-08-07T13:00:09;3.73;;;1.03;;
66619;SDS011;53484;51.356;6.732;2022-08-07T13:05:28;3.90;;;0.80;;
66619;SDS011;53484;51.356;6.732;2022-08-07T13:08:04;3.20;;;0.75;;
66619;SDS011;53484;51.356;6.732;2022-08-07T13:10:37;4.57;;;0.80;;
66619;SDS011;53484;51.356;6.732;2022-08-07T13:13:15;2.30;;;0.70;;
66619;SDS011;53484;51.356;6.732;2022-08-07T13:15:45;2.45;;;0.82;;
66619;SDS011;53484;51.356;6.732;2022-08-07T13:18:16;5.40;;;1.40;;
66619;SDS011;53484;51.356;6.732;2022-08-07T13:20:45;2.58;;;0.85;;
66619;SDS011;53484;51.356;6.732;2022-08-07T13:23:16;3.17;;;0.82;;
66619;SDS011;53484;51.356;6.732;2022-08-07T13:25:44;3.83;;;0.87;;
66619;SDS011;53484;51.356;6.732;2022-08-07T13:28:13;2.60;;;0.80;;
66619;SDS011;53484;51.356;6.732;2022-08-07T13:30:42;3.58;;;0.93;;
66619;SDS011;53484;51.356;6.732;2022-08-07T13:33:10;5.00;;;0.90;;
66619;SDS011;53484;51.356;6.732;2022-08-07T13:35:43;2.92;;;1.02;;
66619;SDS011;53484;51.356;6.732;2022-08-07T13:38:12;2.53;;;1.00;;
66619;SDS011;53484;51.356;6.732;2022-08-07T13:40:42;2.88;;;1.13;;
66619;SDS011;53484;51.356;6.732;2022-08-07T13:43:10;3.72;;;1.30;;
66619;SDS011;53484;51.356;6.732;2022-08-07T13:45:38;2.85;;;0.98;;
66619;SDS011;53484;51.356;6.732;2022-08-07T13:48:05;3.67;;;0.98;;
66619;SDS011;53484;51.356;6.732;2022-08-07T13:50:32;4.17;;;1.03;;
66619;SDS011;53484;51.356;6.732;2022-08-07T13:52:59;4.40;;;1.15;;
66619;SDS011;53484;51.356;6.732;2022-08-07T13:55:27;3.65;;;1.05;;
66619;SDS011;53484;51.356;6.732;2022-08-07T13:57:57;3.53;;;0.90;;
66619;SDS011;53484;51.356;6.732;2022-08-07T14:00:44;3.25;;;1.17;;
66619;SDS011;53484;51.356;6.732;2022-08-07T14:03:11;3.37;;;0.80;;
66619;SDS011;53484;51.356;6.732;2022-08-07T14:05:38;2.40;;;0.95;;
66619;SDS011;53484;51.356;6.732;2022-08-07T14:08:05;5.13;;;0.77;;
66619;SDS011;53484;51.356;6.732;2022-08-07T14:10:34;4.93;;;0.73;;
66619;SDS011;53484;51.356;6.732;2022-08-07T14:13:01;4.25;;;0.80;;
66619;SDS011;53484;51.356;6.732;2022-08-07T14:15:30;3.93;;;1.20;;
66619;SDS011;53484;51.356;6.732;2022-08-07T14:17:58;3.53;;;0.95;;
66619;SDS011;53484;51.356;6.732;2022-08-07T14:20:27;4.65;;;1.05;;
66619;SDS011;53484;51.356;6.732;2022-08-07T14:22:59;3.33;;;0.90;;
66619;SDS011;53484;51.356;6.732;2022-08-07T14:25:27;4.07;;;1.05;;
66619;SDS011;53484;51.356;6.732;2022-08-07T14:27:55;6.17;;;1.40;;
66619;SDS011;53484;51.356;6.732;2022-08-07T14:30:21;3.90;;;0.93;;
66619;SDS011;53484;51.356;6.732;2022-08-07T14:32:49;3.50;;;1.02;;
66619;SDS011;53484;51.356;6.732;2022-08-07T14:35:20;6.53;;;1.08;;
66619;SDS011;53484;51.356;6.732;2022-08-07T14:37:48;3.28;;;1.50;;
66619;SDS011;53484;51.356;6.732;2022-08-07T14:40:17;4.30;;;1.30;;
66619;SDS011;53484;51.356;6.732;2022-08-07T14:42:44;3.78;;;1.02;;
66619;SDS011;53484;51.356;6.732;2022-08-07T14:45:12;2.88;;;1.00;;
66619;SDS011;53484;51.356;6.732;2022-08-07T14:47:40;4.25;;;1.30;;
66619;SDS011;53484;51.356;6.732;2022-08-07T14:50:09;4.72;;;1.05;;
66619;SDS011;53484;51.356;6.732;2022-08-07T14:52:42;4.30;;;1.10;;
66619;SDS011;53484;51.356;6.732;2022-08-07T14:55:09;2.85;;;1.20;;
66619;SDS011;53484;51.356;6.732;2022-08-07T14:57:36;2.80;;;1.10;;
66619;SDS011;53484;51.356;6.732;2022-08-07T15:00:04;3.75;;;1.00;;
66619;SDS011;53484;51.356;6.732;2022-08-07T15:02:33;4.22;;;1.60;;
66619;SDS011;53484;51.356;6.732;2022-08-07T15:05:00;3.77;;;1.00;;